Terminal Aerodrome Forecast
Issued by NWS Charleston, WV

Current Version | Previous Version | Text Only | Print | Product List | Glossary On
Versions: 1 2 3 4 5 6 7 8 9 10 11 12 13 14 15 16 17 18 19 20 21
000
FTUS41 KRLX 131700
TAFEKN
TAF
KEKN 131739Z 1318/1418 24010G21KT P6SM BKN050
     FM132200 24008KT P6SM VCTS BKN045CB
     FM140400 VRB03KT 4SM SHRA BR VCTS BKN040CB
     FM140800 22004KT 1SM BR VCSH OVC080
     FM141100 24004KT 2SM SHRA BR VCTS BKN045CB
     FM141300 24005KT 4SM SHRA BR VCTS BKN035CB=

USA.gov is the U.S. government's official web portal to all federal, state and local government web resources and services.